MI19 weather

Thorn Airport
Custer, Michigan, United States

Public forecast

Using degrees Fahrenheit for public forecast. Weather courtesy of forecast.io.

Closest aviation weather report (METAR) to Thorn Airport

Closest report is Mason County Airport, 10.7 nm (19.7 km) W. Retrieved 2020/04/02 06:15 UTC (10 minutes ago):

KLDM 020615Z AUTO 00000KT 3SM BR CLR M01/M01 A3013 RMK AO2 T10151015

Closest aviation forecast (TAF) to Thorn Airport

Closest forecast is Manistee Co Blacker Airport, 20.9 nm (38.6 km) N. Retrieved 2020/04/02 06:21 UTC (4 minutes ago):

TAF KMBL 020521Z 0206/0306 VRB04KT P6SM FEW250